sensor_id;sensor_type;location;lat;lon;timestamp;temperature;humidity
27306;DHT22;14792;50.886;6.468;2024-03-23T00:52:21;7.70;99.90
27306;DHT22;14792;50.886;6.468;2024-03-23T00:55:23;7.70;99.90
27306;DHT22;14792;50.886;6.468;2024-03-23T00:58:24;7.70;99.90
27306;DHT22;14792;50.886;6.468;2024-03-23T01:01:26;7.60;99.90
27306;DHT22;14792;50.886;6.468;2024-03-23T01:04:27;7.60;99.90
27306;DHT22;14792;50.886;6.468;2024-03-23T01:07:29;7.50;99.90
27306;DHT22;14792;50.886;6.468;2024-03-23T01:10:31;7.40;99.90
27306;DHT22;14792;50.886;6.468;2024-03-23T01:13:32;7.50;99.90
27306;DHT22;14792;50.886;6.468;2024-03-23T01:16:34;7.50;99.90
27306;DHT22;14792;50.886;6.468;2024-03-23T01:19:35;7.50;99.90
27306;DHT22;14792;50.886;6.468;2024-03-23T01:22:37;7.50;99.90
27306;DHT22;14792;50.886;6.468;2024-03-23T01:25:39;7.50;99.90
27306;DHT22;14792;50.886;6.468;2024-03-23T01:28:40;7.50;99.90
27306;DHT22;14792;50.886;6.468;2024-03-23T01:31:42;7.40;99.90
27306;DHT22;14792;50.886;6.468;2024-03-23T01:34:43;7.30;99.90
27306;DHT22;14792;50.886;6.468;2024-03-23T01:37:45;7.00;99.90
27306;DHT22;14792;50.886;6.468;2024-03-23T01:40:46;6.90;99.90
27306;DHT22;14792;50.886;6.468;2024-03-23T01:43:48;6.80;99.90
27306;DHT22;14792;50.886;6.468;2024-03-23T01:46:50;6.70;99.90
27306;DHT22;14792;50.886;6.468;2024-03-23T01:49:51;6.60;99.90
27306;DHT22;14792;50.886;6.468;2024-03-23T01:52:53;6.60;99.90
27306;DHT22;14792;50.886;6.468;2024-03-23T01:55:54;6.30;99.90
27306;DHT22;14792;50.886;6.468;2024-03-23T01:58:56;6.20;99.90
27306;DHT22;14792;50.886;6.468;2024-03-23T02:01:58;6.10;99.90
27306;DHT22;14792;50.886;6.468;2024-03-23T02:04:59;6.10;99.90
27306;DHT22;14792;50.886;6.468;2024-03-23T02:08:01;6.00;99.90
27306;DHT22;14792;50.886;6.468;2024-03-23T02:11:02;6.00;99.90
27306;DHT22;14792;50.886;6.468;2024-03-23T02:14:04;6.00;99.90
27306;DHT22;14792;50.886;6.468;2024-03-23T02:17:06;6.00;99.90
27306;DHT22;14792;50.886;6.468;2024-03-23T02:20:07;5.90;99.90
27306;DHT22;14792;50.886;6.468;2024-03-23T02:23:15;6.00;99.90
27306;DHT22;14792;50.886;6.468;2024-03-23T02:26:16;5.90;99.90
27306;DHT22;14792;50.886;6.468;2024-03-23T02:29:18;6.00;99.90
27306;DHT22;14792;50.886;6.468;2024-03-23T02:32:19;6.00;99.90
27306;DHT22;14792;50.886;6.468;2024-03-23T02:35:21;6.00;99.90
27306;DHT22;14792;50.886;6.468;2024-03-23T02:38:23;5.90;99.90
27306;DHT22;14792;50.886;6.468;2024-03-23T02:41:24;6.00;99.90
27306;DHT22;14792;50.886;6.468;2024-03-23T02:44:26;6.00;99.90
27306;DHT22;14792;50.886;6.468;2024-03-23T02:47:27;6.00;99.90
27306;DHT22;14792;50.886;6.468;2024-03-23T02:50:29;6.10;99.90
27306;DHT22;14792;50.886;6.468;2024-03-23T02:53:31;6.10;99.90
27306;DHT22;14792;50.886;6.468;2024-03-23T02:56:32;6.20;99.90
27306;DHT22;14792;50.886;6.468;2024-03-23T02:59:34;6.10;99.90
27306;DHT22;14792;50.886;6.468;2024-03-23T03:02:35;6.10;99.90
27306;DHT22;14792;50.886;6.468;2024-03-23T03:05:37;6.10;99.90
27306;DHT22;14792;50.886;6.468;2024-03-23T03:08:38;6.10;99.90
27306;DHT22;14792;50.886;6.468;2024-03-23T03:11:40;6.20;99.90
27306;DHT22;14792;50.886;6.468;2024-03-23T03:14:42;6.10;99.90
27306;DHT22;14792;50.886;6.468;2024-03-23T03:17:43;6.00;99.90
27306;DHT22;14792;50.886;6.468;2024-03-23T03:20:45;6.10;99.90
27306;DHT22;14792;50.886;6.468;2024-03-23T03:23:46;6.10;99.90
27306;DHT22;14792;50.886;6.468;2024-03-23T03:26:48;6.10;99.90
27306;DHT22;14792;50.886;6.468;2024-03-23T03:29:49;6.20;99.90
27306;DHT22;14792;50.886;6.468;2024-03-23T03:32:53;6.20;99.90
27306;DHT22;14792;50.886;6.468;2024-03-23T03:35:55;6.20;99.90
27306;DHT22;14792;50.886;6.468;2024-03-23T03:38:57;6.10;99.90
27306;DHT22;14792;50.886;6.468;2024-03-23T03:41:58;6.10;99.90
27306;DHT22;14792;50.886;6.468;2024-03-23T03:45:00;6.10;99.90
27306;DHT22;14792;50.886;6.468;2024-03-23T03:48:01;6.10;99.90
27306;DHT22;14792;50.886;6.468;2024-03-23T03:51:03;6.10;99.90
27306;DHT22;14792;50.886;6.468;2024-03-23T03:54:05;6.10;99.90
27306;DHT22;14792;50.886;6.468;2024-03-23T03:57:06;6.00;99.90
27306;DHT22;14792;50.886;6.468;2024-03-23T04:00:08;6.00;99.90
27306;DHT22;14792;50.886;6.468;2024-03-23T04:03:12;5.90;99.90
27306;DHT22;14792;50.886;6.468;2024-03-23T04:06:20;6.00;99.90
27306;DHT22;14792;50.886;6.468;2024-03-23T04:09:22;6.00;99.90
27306;DHT22;14792;50.886;6.468;2024-03-23T04:12:23;6.00;99.90
27306;DHT22;14792;50.886;6.468;2024-03-23T04:15:25;5.90;99.90
27306;DHT22;14792;50.886;6.468;2024-03-23T04:18:26;6.00;99.90
27306;DHT22;14792;50.886;6.468;2024-03-23T04:21:28;6.00;99.90
27306;DHT22;14792;50.886;6.468;2024-03-23T04:24:30;6.00;99.90
27306;DHT22;14792;50.886;6.468;2024-03-23T04:27:31;6.00;99.90
27306;DHT22;14792;50.886;6.468;2024-03-23T04:30:33;5.90;99.90
27306;DHT22;14792;50.886;6.468;2024-03-23T04:33:34;5.90;99.90
27306;DHT22;14792;50.886;6.468;2024-03-23T04:36:36;5.90;99.90
27306;DHT22;14792;50.886;6.468;2024-03-23T04:39:37;5.90;99.90
27306;DHT22;14792;50.886;6.468;2024-03-23T04:42:39;5.80;99.90
27306;DHT22;14792;50.886;6.468;2024-03-23T04:45:41;5.80;99.90
27306;DHT22;14792;50.886;6.468;2024-03-23T04:48:42;5.90;99.90
27306;DHT22;14792;50.886;6.468;2024-03-23T04:51:44;5.90;99.90
27306;DHT22;14792;50.886;6.468;2024-03-23T04:54:45;5.90;99.90
27306;DHT22;14792;50.886;6.468;2024-03-23T04:57:47;5.90;99.90
27306;DHT22;14792;50.886;6.468;2024-03-23T05:00:53;5.90;99.90
27306;DHT22;14792;50.886;6.468;2024-03-23T05:03:50;5.90;99.90
27306;DHT22;14792;50.886;6.468;2024-03-23T05:06:52;5.80;99.90
27306;DHT22;14792;50.886;6.468;2024-03-23T05:09:53;5.80;99.90
27306;DHT22;14792;50.886;6.468;2024-03-23T05:12:55;5.80;99.90
27306;DHT22;14792;50.886;6.468;2024-03-23T05:15:56;5.80;99.90
27306;DHT22;14792;50.886;6.468;2024-03-23T05:18:58;5.70;99.90
27306;DHT22;14792;50.886;6.468;2024-03-23T05:22:00;5.70;99.90
27306;DHT22;14792;50.886;6.468;2024-03-23T05:25:01;5.60;99.90
27306;DHT22;14792;50.886;6.468;2024-03-23T05:28:03;5.60;99.90
27306;DHT22;14792;50.886;6.468;2024-03-23T05:31:04;5.60;99.90
27306;DHT22;14792;50.886;6.468;2024-03-23T05:34:06;5.60;99.90
27306;DHT22;14792;50.886;6.468;2024-03-23T05:37:08;5.60;99.90
27306;DHT22;14792;50.886;6.468;2024-03-23T05:40:09;5.70;99.90
27306;DHT22;14792;50.886;6.468;2024-03-23T05:43:11;5.70;99.90
27306;DHT22;14792;50.886;6.468;2024-03-23T05:46:12;5.70;99.90
27306;DHT22;14792;50.886;6.468;2024-03-23T05:49:15;5.70;99.90
27306;DHT22;14792;50.886;6.468;2024-03-23T05:52:16;5.60;99.90
27306;DHT22;14792;50.886;6.468;2024-03-23T05:55:17;5.60;99.90
27306;DHT22;14792;50.886;6.468;2024-03-23T05:58:19;5.50;99.90
27306;DHT22;14792;50.886;6.468;2024-03-23T06:01:20;5.50;99.90
27306;DHT22;14792;50.886;6.468;2024-03-23T06:04:22;5.40;99.90
27306;DHT22;14792;50.886;6.468;2024-03-23T06:07:24;5.40;99.90
27306;DHT22;14792;50.886;6.468;2024-03-23T06:10:25;5.40;99.90
27306;DHT22;14792;50.886;6.468;2024-03-23T06:13:27;5.40;99.90
27306;DHT22;14792;50.886;6.468;2024-03-23T06:16:28;5.40;99.90
27306;DHT22;14792;50.886;6.468;2024-03-23T06:19:30;5.50;99.90
27306;DHT22;14792;50.886;6.468;2024-03-23T06:22:32;5.50;99.90
27306;DHT22;14792;50.886;6.468;2024-03-23T06:25:33;5.60;99.90
27306;DHT22;14792;50.886;6.468;2024-03-23T06:28:35;5.70;99.90
27306;DHT22;14792;50.886;6.468;2024-03-23T06:31:36;5.80;99.90
27306;DHT22;14792;50.886;6.468;2024-03-23T06:34:40;5.90;99.90
27306;DHT22;14792;50.886;6.468;2024-03-23T06:37:39;5.90;99.90
27306;DHT22;14792;50.886;6.468;2024-03-23T06:40:41;6.00;99.90
27306;DHT22;14792;50.886;6.468;2024-03-23T06:43:43;6.00;99.90
27306;DHT22;14792;50.886;6.468;2024-03-23T06:46:44;6.10;99.90
27306;DHT22;14792;50.886;6.468;2024-03-23T06:49:46;6.10;99.90
27306;DHT22;14792;50.886;6.468;2024-03-23T06:52:47;6.20;99.90
27306;DHT22;14792;50.886;6.468;2024-03-23T06:55:52;6.30;99.90
27306;DHT22;14792;50.886;6.468;2024-03-23T06:58:53;6.40;99.90
27306;DHT22;14792;50.886;6.468;2024-03-23T07:01:55;6.50;99.90
27306;DHT22;14792;50.886;6.468;2024-03-23T07:04:56;6.60;99.90
27306;DHT22;14792;50.886;6.468;2024-03-23T07:07:58;6.70;99.90
27306;DHT22;14792;50.886;6.468;2024-03-23T07:10:59;6.90;99.90
27306;DHT22;14792;50.886;6.468;2024-03-23T07:14:01;7.10;99.90
27306;DHT22;14792;50.886;6.468;2024-03-23T07:17:03;7.40;99.90
27306;DHT22;14792;50.886;6.468;2024-03-23T07:20:04;7.40;99.90
27306;DHT22;14792;50.886;6.468;2024-03-23T07:23:06;6.60;99.90
27306;DHT22;14792;50.886;6.468;2024-03-23T07:26:07;6.00;99.90
27306;DHT22;14792;50.886;6.468;2024-03-23T07:29:09;5.70;99.90
27306;DHT22;14792;50.886;6.468;2024-03-23T07:32:11;5.60;99.90
27306;DHT22;14792;50.886;6.468;2024-03-23T07:35:12;5.70;99.90
27306;DHT22;14792;50.886;6.468;2024-03-23T07:38:14;5.80;99.90
27306;DHT22;14792;50.886;6.468;2024-03-23T07:41:16;6.00;99.90
27306;DHT22;14792;50.886;6.468;2024-03-23T07:44:20;6.10;99.90
27306;DHT22;14792;50.886;6.468;2024-03-23T07:47:21;6.20;99.90
27306;DHT22;14792;50.886;6.468;2024-03-23T07:50:23;6.20;99.90
27306;DHT22;14792;50.886;6.468;2024-03-23T07:53:24;6.30;99.90
27306;DHT22;14792;50.886;6.468;2024-03-23T07:56:26;6.60;99.90
27306;DHT22;14792;50.886;6.468;2024-03-23T07:59:28;7.00;99.90
27306;DHT22;14792;50.886;6.468;2024-03-23T08:02:29;7.30;99.90
27306;DHT22;14792;50.886;6.468;2024-03-23T08:05:31;7.50;99.90
27306;DHT22;14792;50.886;6.468;2024-03-23T08:08:32;7.60;99.90
27306;DHT22;14792;50.886;6.468;2024-03-23T08:11:34;7.80;99.90
27306;DHT22;14792;50.886;6.468;2024-03-23T08:14:36;8.00;99.90
27306;DHT22;14792;50.886;6.468;2024-03-23T08:17:37;8.40;99.90
27306;DHT22;14792;50.886;6.468;2024-03-23T08:20:39;8.80;99.90
27306;DHT22;14792;50.886;6.468;2024-03-23T08:23:40;8.50;99.90
27306;DHT22;14792;50.886;6.468;2024-03-23T08:26:42;8.50;99.90
27306;DHT22;14792;50.886;6.468;2024-03-23T08:29:45;8.50;99.90
27306;DHT22;14792;50.886;6.468;2024-03-23T08:32:45;8.40;99.90
27306;DHT22;14792;50.886;6.468;2024-03-23T08:35:53;8.40;99.90
27306;DHT22;14792;50.886;6.468;2024-03-23T08:38:54;8.40;99.90
27306;DHT22;14792;50.886;6.468;2024-03-23T08:41:56;8.80;99.90
27306;DHT22;14792;50.886;6.468;2024-03-23T08:44:57;9.00;99.90
27306;DHT22;14792;50.886;6.468;2024-03-23T08:47:59;8.70;99.90
27306;DHT22;14792;50.886;6.468;2024-03-23T08:51:01;8.40;99.90
27306;DHT22;14792;50.886;6.468;2024-03-23T08:54:05;8.30;99.90
27306;DHT22;14792;50.886;6.468;2024-03-23T08:57:07;8.20;99.90
27306;DHT22;14792;50.886;6.468;2024-03-23T09:00:09;8.60;99.90
27306;DHT22;14792;50.886;6.468;2024-03-23T09:03:10;8.60;99.90
27306;DHT22;14792;50.886;6.468;2024-03-23T09:06:13;8.40;99.90
27306;DHT22;14792;50.886;6.468;2024-03-23T09:09:13;8.20;99.90
27306;DHT22;14792;50.886;6.468;2024-03-23T09:12:15;8.40;99.90
27306;DHT22;14792;50.886;6.468;2024-03-23T09:15:17;8.50;99.90
27306;DHT22;14792;50.886;6.468;2024-03-23T09:18:18;8.70;99.90
27306;DHT22;14792;50.886;6.468;2024-03-23T09:21:20;9.00;99.90
27306;DHT22;14792;50.886;6.468;2024-03-23T09:24:21;9.50;99.90
27306;DHT22;14792;50.886;6.468;2024-03-23T09:27:23;9.60;99.90
27306;DHT22;14792;50.886;6.468;2024-03-23T09:30:24;9.40;99.90
27306;DHT22;14792;50.886;6.468;2024-03-23T09:33:26;9.10;99.90
27306;DHT22;14792;50.886;6.468;2024-03-23T09:36:28;9.50;99.90
27306;DHT22;14792;50.886;6.468;2024-03-23T09:39:29;9.30;99.90
27306;DHT22;14792;50.886;6.468;2024-03-23T09:42:31;9.70;99.90
27306;DHT22;14792;50.886;6.468;2024-03-23T09:45:35;9.50;99.90
27306;DHT22;14792;50.886;6.468;2024-03-23T09:48:34;9.20;99.90
27306;DHT22;14792;50.886;6.468;2024-03-23T09:51:36;8.90;99.90
27306;DHT22;14792;50.886;6.468;2024-03-23T09:54:37;8.80;99.90
27306;DHT22;14792;50.886;6.468;2024-03-23T09:57:39;8.60;99.90
27306;DHT22;14792;50.886;6.468;2024-03-23T10:00:41;8.50;99.90
27306;DHT22;14792;50.886;6.468;2024-03-23T10:03:43;8.40;99.90
27306;DHT22;14792;50.886;6.468;2024-03-23T10:06:44;8.20;99.90
27306;DHT22;14792;50.886;6.468;2024-03-23T10:09:45;8.50;99.90
27306;DHT22;14792;50.886;6.468;2024-03-23T10:12:48;8.70;99.90
27306;DHT22;14792;50.886;6.468;2024-03-23T10:15:51;8.60;99.90
27306;DHT22;14792;50.886;6.468;2024-03-23T10:18:50;8.80;99.90
27306;DHT22;14792;50.886;6.468;2024-03-23T10:21:55;8.90;99.90
27306;DHT22;14792;50.886;6.468;2024-03-23T10:24:56;9.20;99.90
27306;DHT22;14792;50.886;6.468;2024-03-23T10:28:00;9.50;99.90
27306;DHT22;14792;50.886;6.468;2024-03-23T10:31:06;9.80;99.90
27306;DHT22;14792;50.886;6.468;2024-03-23T10:34:03;10.20;99.90
27306;DHT22;14792;50.886;6.468;2024-03-23T10:37:05;10.40;99.90
27306;DHT22;14792;50.886;6.468;2024-03-23T10:40:07;10.40;99.90
27306;DHT22;14792;50.886;6.468;2024-03-23T10:43:08;10.40;99.90
27306;DHT22;14792;50.886;6.468;2024-03-23T10:46:10;10.30;99.90
27306;DHT22;14792;50.886;6.468;2024-03-23T10:49:11;9.90;99.90
27306;DHT22;14792;50.886;6.468;2024-03-23T10:52:13;10.30;99.90
27306;DHT22;14792;50.886;6.468;2024-03-23T10:55:15;10.30;99.90
27306;DHT22;14792;50.886;6.468;2024-03-23T10:58:50;9.90;99.90
27306;DHT22;14792;50.886;6.468;2024-03-23T11:01:23;10.30;99.90
27306;DHT22;14792;50.886;6.468;2024-03-23T11:07:33;10.20;99.90
27306;DHT22;14792;50.886;6.468;2024-03-23T11:10:34;10.10;99.90
27306;DHT22;14792;50.886;6.468;2024-03-23T11:13:36;9.80;99.90
27306;DHT22;14792;50.886;6.468;2024-03-23T11:16:37;9.90;99.90
27306;DHT22;14792;50.886;6.468;2024-03-23T11:19:39;10.50;99.90
27306;DHT22;14792;50.886;6.468;2024-03-23T11:22:44;11.00;99.90
27306;DHT22;14792;50.886;6.468;2024-03-23T11:25:45;10.90;99.90
27306;DHT22;14792;50.886;6.468;2024-03-23T11:28:47;10.90;99.90
27306;DHT22;14792;50.886;6.468;2024-03-23T11:31:48;10.40;99.90
27306;DHT22;14792;50.886;6.468;2024-03-23T11:34:50;9.90;99.90
27306;DHT22;14792;50.886;6.468;2024-03-23T11:41:08;9.30;99.90
27306;DHT22;14792;50.886;6.468;2024-03-23T11:44:16;10.00;99.90
27306;DHT22;14792;50.886;6.468;2024-03-23T11:47:16;10.00;99.90
27306;DHT22;14792;50.886;6.468;2024-03-23T11:50:21;9.80;99.90
27306;DHT22;14792;50.886;6.468;2024-03-23T11:53:23;9.40;99.90
27306;DHT22;14792;50.886;6.468;2024-03-23T11:56:24;9.20;99.90
27306;DHT22;14792;50.886;6.468;2024-03-23T11:59:35;9.60;99.90
27306;DHT22;14792;50.886;6.468;2024-03-23T12:02:36;9.70;99.90
27306;DHT22;14792;50.886;6.468;2024-03-23T12:05:37;9.30;99.90
27306;DHT22;14792;50.886;6.468;2024-03-23T12:08:39;7.70;99.90
27306;DHT22;14792;50.886;6.468;2024-03-23T12:11:41;7.00;99.90
27306;DHT22;14792;50.886;6.468;2024-03-23T12:14:45;6.60;99.90
27306;DHT22;14792;50.886;6.468;2024-03-23T12:17:46;6.30;99.90
27306;DHT22;14792;50.886;6.468;2024-03-23T12:20:48;6.40;99.90
27306;DHT22;14792;50.886;6.468;2024-03-23T12:23:49;7.00;99.90
27306;DHT22;14792;50.886;6.468;2024-03-23T12:26:52;7.20;99.90
27306;DHT22;14792;50.886;6.468;2024-03-23T12:29:53;7.10;99.90
27306;DHT22;14792;50.886;6.468;2024-03-23T12:32:55;7.20;99.90
27306;DHT22;14792;50.886;6.468;2024-03-23T12:35:57;7.30;99.90
27306;DHT22;14792;50.886;6.468;2024-03-23T12:38:58;7.20;99.90
27306;DHT22;14792;50.886;6.468;2024-03-23T12:42:00;7.20;99.90
27306;DHT22;14792;50.886;6.468;2024-03-23T12:45:01;7.30;99.90
27306;DHT22;14792;50.886;6.468;2024-03-23T12:48:03;7.80;99.90
27306;DHT22;14792;50.886;6.468;2024-03-23T12:51:05;8.60;99.90
27306;DHT22;14792;50.886;6.468;2024-03-23T12:54:06;9.30;99.90
27306;DHT22;14792;50.886;6.468;2024-03-23T12:57:08;8.90;99.90
27306;DHT22;14792;50.886;6.468;2024-03-23T13:00:09;8.60;99.90
27306;DHT22;14792;50.886;6.468;2024-03-23T13:03:13;8.40;99.90
27306;DHT22;14792;50.886;6.468;2024-03-23T13:06:15;8.50;99.90
27306;DHT22;14792;50.886;6.468;2024-03-23T13:09:17;8.50;99.90
27306;DHT22;14792;50.886;6.468;2024-03-23T13:12:23;8.90;99.90
27306;DHT22;14792;50.886;6.468;2024-03-23T13:15:21;9.60;99.90
27306;DHT22;14792;50.886;6.468;2024-03-23T13:18:23;9.70;99.90
27306;DHT22;14792;50.886;6.468;2024-03-23T13:21:24;9.50;99.90
27306;DHT22;14792;50.886;6.468;2024-03-23T13:24:28;9.70;99.90
27306;DHT22;14792;50.886;6.468;2024-03-23T13:27:30;9.50;99.90
27306;DHT22;14792;50.886;6.468;2024-03-23T13:30:31;8.60;99.90
27306;DHT22;14792;50.886;6.468;2024-03-23T13:33:33;7.80;99.90
27306;DHT22;14792;50.886;6.468;2024-03-23T13:36:34;7.40;99.90
27306;DHT22;14792;50.886;6.468;2024-03-23T13:39:36;6.70;99.90
27306;DHT22;14792;50.886;6.468;2024-03-23T13:42:38;6.70;99.90
27306;DHT22;14792;50.886;6.468;2024-03-23T13:45:39;7.10;99.90
27306;DHT22;14792;50.886;6.468;2024-03-23T13:48:41;7.60;99.90
27306;DHT22;14792;50.886;6.468;2024-03-23T13:51:43;7.70;99.90
27306;DHT22;14792;50.886;6.468;2024-03-23T13:54:44;7.60;99.90
27306;DHT22;14792;50.886;6.468;2024-03-23T13:57:46;7.50;99.90
27306;DHT22;14792;50.886;6.468;2024-03-23T14:00:47;7.40;99.90
27306;DHT22;14792;50.886;6.468;2024-03-23T14:03:49;7.60;99.90
27306;DHT22;14792;50.886;6.468;2024-03-23T14:06:50;8.20;99.90
27306;DHT22;14792;50.886;6.468;2024-03-23T14:09:52;8.30;99.90
27306;DHT22;14792;50.886;6.468;2024-03-23T14:12:54;8.50;99.90
27306;DHT22;14792;50.886;6.468;2024-03-23T14:15:55;8.60;99.90
27306;DHT22;14792;50.886;6.468;2024-03-23T14:18:57;8.60;99.90
27306;DHT22;14792;50.886;6.468;2024-03-23T14:21:58;8.30;99.90
27306;DHT22;14792;50.886;6.468;2024-03-23T14:25:00;8.20;99.90
27306;DHT22;14792;50.886;6.468;2024-03-23T14:28:01;8.10;99.90
27306;DHT22;14792;50.886;6.468;2024-03-23T14:31:03;8.00;99.90
27306;DHT22;14792;50.886;6.468;2024-03-23T14:34:05;7.00;99.90
27306;DHT22;14792;50.886;6.468;2024-03-23T14:37:06;6.20;99.90
27306;DHT22;14792;50.886;6.468;2024-03-23T14:40:09;6.00;99.90
27306;DHT22;14792;50.886;6.468;2024-03-23T14:43:11;5.80;99.90
27306;DHT22;14792;50.886;6.468;2024-03-23T14:46:13;5.70;99.90
27306;DHT22;14792;50.886;6.468;2024-03-23T14:49:14;5.50;99.90
27306;DHT22;14792;50.886;6.468;2024-03-23T14:52:18;5.40;99.90
27306;DHT22;14792;50.886;6.468;2024-03-23T14:55:20;5.60;99.90
27306;DHT22;14792;50.886;6.468;2024-03-23T14:58:21;5.80;99.90
27306;DHT22;14792;50.886;6.468;2024-03-23T15:01:23;5.80;99.90
27306;DHT22;14792;50.886;6.468;2024-03-23T15:04:24;5.70;99.90
27306;DHT22;14792;50.886;6.468;2024-03-23T15:07:26;5.80;99.90
27306;DHT22;14792;50.886;6.468;2024-03-23T15:10:28;6.60;99.90
27306;DHT22;14792;50.886;6.468;2024-03-23T15:13:29;7.20;99.90
27306;DHT22;14792;50.886;6.468;2024-03-23T15:16:31;7.60;99.90
27306;DHT22;14792;50.886;6.468;2024-03-23T15:19:32;8.00;99.90
27306;DHT22;14792;50.886;6.468;2024-03-23T15:22:34;7.90;99.90
27306;DHT22;14792;50.886;6.468;2024-03-23T15:25:35;7.70;99.90
27306;DHT22;14792;50.886;6.468;2024-03-23T15:28:37;7.50;99.90
27306;DHT22;14792;50.886;6.468;2024-03-23T15:31:39;7.40;99.90
27306;DHT22;14792;50.886;6.468;2024-03-23T15:34:40;7.30;99.90
27306;DHT22;14792;50.886;6.468;2024-03-23T15:37:42;7.20;99.90
27306;DHT22;14792;50.886;6.468;2024-03-23T15:40:50;7.10;99.90
27306;DHT22;14792;50.886;6.468;2024-03-23T15:43:45;6.70;99.90
27306;DHT22;14792;50.886;6.468;2024-03-23T15:46:47;5.70;99.90
27306;DHT22;14792;50.886;6.468;2024-03-23T15:49:48;5.50;99.90
27306;DHT22;14792;50.886;6.468;2024-03-23T15:52:50;5.70;99.90
27306;DHT22;14792;50.886;6.468;2024-03-23T15:55:55;5.50;99.90
27306;DHT22;14792;50.886;6.468;2024-03-23T15:58:56;5.60;99.90
27306;DHT22;14792;50.886;6.468;2024-03-23T16:01:58;5.80;99.90
27306;DHT22;14792;50.886;6.468;2024-03-23T16:04:59;6.10;99.90
27306;DHT22;14792;50.886;6.468;2024-03-23T16:08:01;6.20;99.90
27306;DHT22;14792;50.886;6.468;2024-03-23T16:11:03;6.20;99.90
27306;DHT22;14792;50.886;6.468;2024-03-23T16:14:04;6.30;99.90
27306;DHT22;14792;50.886;6.468;2024-03-23T16:17:06;6.40;99.90
27306;DHT22;14792;50.886;6.468;2024-03-23T16:20:07;6.60;99.90
27306;DHT22;14792;50.886;6.468;2024-03-23T16:23:09;6.60;99.90
27306;DHT22;14792;50.886;6.468;2024-03-23T16:26:10;6.70;99.90
27306;DHT22;14792;50.886;6.468;2024-03-23T16:29:12;6.80;99.90
27306;DHT22;14792;50.886;6.468;2024-03-23T16:32:14;6.60;99.90
27306;DHT22;14792;50.886;6.468;2024-03-23T16:35:15;6.60;99.90
27306;DHT22;14792;50.886;6.468;2024-03-23T16:38:17;6.70;99.90
27306;DHT22;14792;50.886;6.468;2024-03-23T16:41:18;6.70;99.90
27306;DHT22;14792;50.886;6.468;2024-03-23T16:44:20;6.70;99.90
27306;DHT22;14792;50.886;6.468;2024-03-23T16:47:22;6.70;99.90
27306;DHT22;14792;50.886;6.468;2024-03-23T16:50:23;6.60;99.90
27306;DHT22;14792;50.886;6.468;2024-03-23T16:53:25;6.60;99.90
27306;DHT22;14792;50.886;6.468;2024-03-23T16:56:26;6.60;99.90
27306;DHT22;14792;50.886;6.468;2024-03-23T16:59:28;6.50;99.90
27306;DHT22;14792;50.886;6.468;2024-03-23T17:02:29;6.40;99.90
27306;DHT22;14792;50.886;6.468;2024-03-23T17:05:37;6.20;99.90
27306;DHT22;14792;50.886;6.468;2024-03-23T17:08:38;6.10;99.90
27306;DHT22;14792;50.886;6.468;2024-03-23T17:11:40;6.20;99.90
27306;DHT22;14792;50.886;6.468;2024-03-23T17:14:41;6.20;99.90
27306;DHT22;14792;50.886;6.468;2024-03-23T17:17:43;6.20;99.90
27306;DHT22;14792;50.886;6.468;2024-03-23T17:20:45;6.20;99.90
27306;DHT22;14792;50.886;6.468;2024-03-23T17:23:46;6.20;99.90
27306;DHT22;14792;50.886;6.468;2024-03-23T17:26:48;6.10;99.90
27306;DHT22;14792;50.886;6.468;2024-03-23T17:29:49;6.00;99.90
27306;DHT22;14792;50.886;6.468;2024-03-23T17:32:51;6.00;99.90
27306;DHT22;14792;50.886;6.468;2024-03-23T17:35:53;5.90;99.90
27306;DHT22;14792;50.886;6.468;2024-03-23T17:38:54;5.90;99.90
27306;DHT22;14792;50.886;6.468;2024-03-23T17:41:56;5.90;99.90
27306;DHT22;14792;50.886;6.468;2024-03-23T17:44:57;5.90;99.90
27306;DHT22;14792;50.886;6.468;2024-03-23T17:47:59;5.90;99.90
27306;DHT22;14792;50.886;6.468;2024-03-23T17:51:03;6.00;99.90
27306;DHT22;14792;50.886;6.468;2024-03-23T17:54:05;6.00;99.90
27306;DHT22;14792;50.886;6.468;2024-03-23T17:57:06;6.00;99.90
27306;DHT22;14792;50.886;6.468;2024-03-23T18:00:08;6.10;99.90
27306;DHT22;14792;50.886;6.468;2024-03-23T18:03:10;6.10;99.90
27306;DHT22;14792;50.886;6.468;2024-03-23T18:06:11;5.60;99.90
27306;DHT22;14792;50.886;6.468;2024-03-23T18:09:15;5.30;99.90
27306;DHT22;14792;50.886;6.468;2024-03-23T18:12:14;5.00;99.90
27306;DHT22;14792;50.886;6.468;2024-03-23T18:15:16;4.90;99.90
27306;DHT22;14792;50.886;6.468;2024-03-23T18:18:18;4.80;99.90
27306;DHT22;14792;50.886;6.468;2024-03-23T18:21:19;4.80;99.90
27306;DHT22;14792;50.886;6.468;2024-03-23T18:24:21;4.90;99.90
27306;DHT22;14792;50.886;6.468;2024-03-23T18:27:22;4.90;99.90
27306;DHT22;14792;50.886;6.468;2024-03-23T18:30:24;4.80;99.90
27306;DHT22;14792;50.886;6.468;2024-03-23T18:33:26;4.80;99.90
27306;DHT22;14792;50.886;6.468;2024-03-23T18:36:27;4.70;99.90
27306;DHT22;14792;50.886;6.468;2024-03-23T18:39:29;4.60;99.90
27306;DHT22;14792;50.886;6.468;2024-03-23T18:42:32;4.60;99.90
27306;DHT22;14792;50.886;6.468;2024-03-23T18:45:32;4.50;99.90
27306;DHT22;14792;50.886;6.468;2024-03-23T18:48:33;4.50;99.90
27306;DHT22;14792;50.886;6.468;2024-03-23T18:51:35;4.60;99.90
27306;DHT22;14792;50.886;6.468;2024-03-23T18:54:37;4.60;99.90
27306;DHT22;14792;50.886;6.468;2024-03-23T18:57:38;4.60;99.90
27306;DHT22;14792;50.886;6.468;2024-03-23T19:00:40;4.50;99.90
27306;DHT22;14792;50.886;6.468;2024-03-23T19:03:41;4.40;99.90
27306;DHT22;14792;50.886;6.468;2024-03-23T19:06:43;4.50;99.90
27306;DHT22;14792;50.886;6.468;2024-03-23T19:09:44;4.50;99.90
27306;DHT22;14792;50.886;6.468;2024-03-23T19:12:47;4.50;99.90
27306;DHT22;14792;50.886;6.468;2024-03-23T19:15:48;4.50;99.90
27306;DHT22;14792;50.886;6.468;2024-03-23T19:18:49;4.60;99.90
27306;DHT22;14792;50.886;6.468;2024-03-23T19:21:51;4.60;99.90
27306;DHT22;14792;50.886;6.468;2024-03-23T19:24:52;4.60;99.90
27306;DHT22;14792;50.886;6.468;2024-03-23T19:27:56;4.60;99.90
27306;DHT22;14792;50.886;6.468;2024-03-23T19:30:56;4.70;99.90
27306;DHT22;14792;50.886;6.468;2024-03-23T19:33:57;4.80;99.90
27306;DHT22;14792;50.886;6.468;2024-03-23T19:36:59;4.80;99.90
27306;DHT22;14792;50.886;6.468;2024-03-23T19:40:00;4.80;99.90
27306;DHT22;14792;50.886;6.468;2024-03-23T19:43:02;4.90;99.90
27306;DHT22;14792;50.886;6.468;2024-03-23T19:46:03;4.90;99.90
27306;DHT22;14792;50.886;6.468;2024-03-23T19:49:05;5.00;99.90
27306;DHT22;14792;50.886;6.468;2024-03-23T19:52:07;5.00;99.90
27306;DHT22;14792;50.886;6.468;2024-03-23T19:55:08;5.00;99.90
27306;DHT22;14792;50.886;6.468;2024-03-23T19:58:10;5.10;99.90
27306;DHT22;14792;50.886;6.468;2024-03-23T20:01:15;5.10;99.90
27306;DHT22;14792;50.886;6.468;2024-03-23T20:04:16;5.20;99.90
27306;DHT22;14792;50.886;6.468;2024-03-23T20:07:18;5.10;99.90
27306;DHT22;14792;50.886;6.468;2024-03-23T20:10:19;5.00;99.90
27306;DHT22;14792;50.886;6.468;2024-03-23T20:13:21;5.00;99.90
27306;DHT22;14792;50.886;6.468;2024-03-23T20:16:22;5.00;99.90
27306;DHT22;14792;50.886;6.468;2024-03-23T20:19:24;4.90;99.90
27306;DHT22;14792;50.886;6.468;2024-03-23T20:22:25;4.90;99.90